Millstone, Connecticut
Current Conditions -  °F | °C
As of 4:21 AM on Thursday 23 Oct 2014 (Local Time) from KGON Reporting Station
Overcast Overcast  
Wind Chill: 50°   Ceiling: 6500
Heat Index: 50°   Visibility: 10mi
Dew Point: 47°   Wind: 21mph
Humidity: 89%   Direction: 10°N
Pressure: 29.61"   Gusts: 35mph
Location:  41.3583°N, 72.1558°W
Report Text: KGON 230821Z AUTO 01018G30KT 10SM SCT024 BKN065 OVC100 10/08 A2961 RMK AO2 PK WND 01030/0813 LTG DSNT SW RAB06E16 P0000 T01000083
Loading
Personal Weather Stations






























Interactive Weather Map
Tropical Storm Tracking
New forecast layout! Learn more

10-Day Weather Forecast

Advertisements
Track Severe Weather on mobile